Time;durP1;ratioP1;P1;durP2;ratioP2;P2;SDS_P1;SDS_P2;PMS_P1;PMS_P2;Temp;Humidity;BMP_temperature;BMP_pressure;BME280_temperature;BME280_humidity;BME280_pressure;Samples;Min_cycle;Max_cycle;Signal;HPM_P1;HPM_P2
2022/10/28 00:00:04;;;;;;;;;;;22.90;63.20;;;;;;5100000;28;20395;-68
2022/10/28 00:02:31;;;;;;;;;;;23.00;63.80;;;;;;5097152;28;19912;-67
2022/10/28 00:04:58;;;;;;;;;;;23.10;63.20;;;;;;5099837;28;19991;-68
2022/10/28 00:07:25;;;;;;;;;;;23.20;63.50;;;;;;5095909;28;19920;-67
2022/10/28 00:09:51;;;;;;;;;;;23.30;62.40;;;;;;5099486;28;19962;-67
2022/10/28 00:12:18;;;;;;;;;;;23.20;61.80;;;;;;5079308;28;19911;-67
2022/10/28 00:14:44;;;;;;;;;;;23.30;61.30;;;;;;5097112;28;19919;-67
2022/10/28 00:17:11;;;;;;;;;;;23.40;61.50;;;;;;5100050;28;19935;-69
2022/10/28 00:19:38;;;;;;;;;;;23.50;60.30;;;;;;5104350;28;20387;-71
2022/10/28 00:22:04;;;;;;;;;;;23.50;59.90;;;;;;5078377;28;19919;-69
2022/10/28 00:24:31;;;;;;;;;;;23.50;60.70;;;;;;5091232;28;19949;-69
2022/10/28 00:26:57;;;;;;;;;;;23.60;59.50;;;;;;5098678;28;20018;-69
2022/10/28 00:29:24;;;;;;;;;;;23.60;58.10;;;;;;5098573;28;19912;-67
2022/10/28 00:31:51;;;;;;;;;;;23.70;58.70;;;;;;5092243;28;19912;-71
2022/10/28 00:34:20;;;;;;;;;;;23.90;58.10;;;;;;5085642;28;19920;-69
2022/10/28 00:36:47;;;;;;;;;;;23.90;57.30;;;;;;5084787;28;20004;-70
2022/10/28 00:39:18;;;;;;;;;;;24.00;57.40;;;;;;5086325;28;20007;-68
2022/10/28 00:41:46;;;;;;;;;;;24.00;57.70;;;;;;5084404;28;20364;-68
2022/10/28 00:44:31;;;;;;;;;;;24.10;57.70;;;;;;5090143;28;19912;-69
2022/10/28 00:46:57;;;;;;;;;;;24.00;56.50;;;;;;5092575;28;19930;-68
2022/10/28 00:49:26;;;;;;;;;;;24.10;57.80;;;;;;5102410;28;20299;-67
2022/10/28 00:51:57;;;;;;;;;;;24.20;57.40;;;;;;5089190;28;19912;-69
2022/10/28 00:54:24;;;;;;;;;;;24.20;55.70;;;;;;5086023;28;19923;-68
2022/10/28 00:56:52;;;;;;;;;;;24.20;56.80;;;;;;5092408;28;20869;-69
2022/10/28 00:59:22;;;;;;;;;;;24.30;56.80;;;;;;5100113;28;19916;-67
2022/10/28 01:01:48;;;;;;;;;;;24.40;57.20;;;;;;5090661;28;19912;-66
2022/10/28 01:04:15;;;;;;;;;;;24.50;56.10;;;;;;5089542;28;19954;-69
2022/10/28 01:06:42;;;;;;;;;;;24.60;56.90;;;;;;5090530;28;19920;-68
2022/10/28 01:09:09;;;;;;;;;;;24.70;57.10;;;;;;5095084;28;20007;-67
2022/10/28 01:11:36;;;;;;;;;;;24.70;56.50;;;;;;5103434;28;19920;-69
2022/10/28 01:14:08;;;;;;;;;;;24.70;56.70;;;;;;5102143;28;19937;-67
2022/10/28 01:16:41;;;;;;;;;;;24.90;57.40;;;;;;5089325;28;20274;-67
2022/10/28 01:19:13;;;;;;;;;;;24.90;56.60;;;;;;5090163;28;19912;-66
2022/10/28 01:22:03;;;;;;;;;;;24.90;56.20;;;;;;5103409;28;20364;-66
2022/10/28 01:24:45;;;;;;;;;;;25.00;56.80;;;;;;5070161;28;19922;-67
2022/10/28 01:27:21;;;;;;;;;;;25.20;54.90;;;;;;5090279;28;20508;-65
2022/10/28 01:29:47;;;;;;;;;;;25.20;54.10;;;;;;5101612;28;19954;-67
2022/10/28 01:32:24;;;;;;;;;;;25.40;54.90;;;;;;5102395;28;20287;-66
2022/10/28 01:34:54;;;;;;;;;;;25.40;54.20;;;;;;5103559;28;20360;-68
2022/10/28 01:37:21;;;;;;;;;;;25.60;52.40;;;;;;5104450;28;19907;-67
2022/10/28 01:39:50;;;;;;;;;;;25.70;52.70;;;;;;5103532;28;20361;-66
2022/10/28 01:42:35;;;;;;;;;;;25.60;51.90;;;;;;5101375;28;19984;-66
2022/10/28 01:45:12;;;;;;;;;;;25.60;52.70;;;;;;5083174;28;19912;-66
2022/10/28 01:47:51;;;;;;;;;;;25.70;51.80;;;;;;5066876;28;19920;-67
2022/10/28 01:50:30;;;;;;;;;;;25.60;52.60;;;;;;5090855;28;19927;-66
2022/10/28 01:52:59;;;;;;;;;;;25.90;52.50;;;;;;5101826;28;19930;-68
2022/10/28 01:55:28;;;;;;;;;;;26.10;52.90;;;;;;5099393;28;20447;-67
2022/10/28 01:57:56;;;;;;;;;;;26.30;51.50;;;;;;5054726;28;19957;-66
2022/10/28 02:00:23;;;;;;;;;;;26.10;51.00;;;;;;5087679;28;19907;-67
2022/10/28 02:02:50;;;;;;;;;;;26.10;52.70;;;;;;5103064;28;19920;-66
2022/10/28 02:05:35;;;;;;;;;;;26.20;53.00;;;;;;5103262;28;19916;-67
2022/10/28 02:08:22;;;;;;;;;;;26.30;51.60;;;;;;5090380;28;20073;-65
2022/10/28 02:10:49;;;;;;;;;;;26.40;52.00;;;;;;5081730;28;19912;-67
2022/10/28 02:13:16;;;;;;;;;;;26.50;52.00;;;;;;5081342;28;19912;-69
2022/10/28 02:15:48;;;;;;;;;;;26.50;51.70;;;;;;5081367;28;19912;-68
2022/10/28 02:18:30;;;;;;;;;;;26.30;50.50;;;;;;5094465;28;19907;-68
2022/10/28 02:21:00;;;;;;;;;;;26.10;49.50;;;;;;5102044;28;20423;-68
2022/10/28 02:23:41;;;;;;;;;;;25.90;50.90;;;;;;5102225;28;19919;-67
2022/10/28 02:26:13;;;;;;;;;;;26.10;50.20;;;;;;5102663;28;19916;-67
2022/10/28 02:28:43;;;;;;;;;;;26.30;49.40;;;;;;5103241;28;19912;-66
2022/10/28 02:31:16;;;;;;;;;;;26.30;49.40;;;;;;5103194;28;19960;-65
2022/10/28 02:33:43;;;;;;;;;;;26.50;50.80;;;;;;5103665;28;19939;-68
2022/10/28 02:36:16;;;;;;;;;;;26.60;49.90;;;;;;5102911;28;19908;-67
2022/10/28 02:38:52;;;;;;;;;;;27.00;50.00;;;;;;5085673;28;19961;-68
2022/10/28 02:41:39;;;;;;;;;;;27.40;49.50;;;;;;5082755;28;20356;-67
2022/10/28 02:44:10;;;;;;;;;;;27.70;49.60;;;;;;5063284;28;19943;-69
2022/10/28 02:46:38;;;;;;;;;;;28.50;48.80;;;;;;5094377;28;19989;-68
2022/10/28 02:49:09;;;;;;;;;;;29.30;48.40;;;;;;5097477;28;20273;-67
2022/10/28 02:51:56;;;;;;;;;;;30.00;48.60;;;;;;5107733;28;20006;-67
2022/10/28 02:54:23;;;;;;;;;;;31.00;46.90;;;;;;5106818;28;19908;-68
2022/10/28 02:57:15;;;;;;;;;;;32.10;46.00;;;;;;5107156;28;20279;-67
2022/10/28 02:59:42;;;;;;;;;;;32.40;45.30;;;;;;5104655;28;20338;-67
2022/10/28 03:02:09;;;;;;;;;;;32.50;44.60;;;;;;5107132;28;19994;-67
2022/10/28 03:04:37;;;;;;;;;;;33.00;43.90;;;;;;5107407;28;19971;-67
2022/10/28 03:07:03;;;;;;;;;;;33.60;43.40;;;;;;5103496;28;19920;-67
2022/10/28 03:09:30;;;;;;;;;;;33.70;42.40;;;;;;5086868;28;19973;-67
2022/10/28 03:11:56;;;;;;;;;;;34.00;43.90;;;;;;5102475;28;20360;-67
2022/10/28 03:14:23;;;;;;;;;;;34.90;41.90;;;;;;5086972;28;20007;-68
2022/10/28 03:16:49;;;;;;;;;;;35.10;42.50;;;;;;5086780;28;19908;-68
2022/10/28 03:19:16;;;;;;;;;;;35.20;42.20;;;;;;5093811;28;19907;-67
2022/10/28 03:21:43;;;;;;;;;;;36.00;41.40;;;;;;5107276;28;19953;-69
2022/10/28 03:24:09;;;;;;;;;;;36.10;42.30;;;;;;5106995;28;20295;-67
2022/10/28 03:26:36;;;;;;;;;;;35.80;41.60;;;;;;5107315;28;20010;-68
2022/10/28 03:29:02;;;;;;;;;;;36.00;40.80;;;;;;5106165;28;20327;-68
2022/10/28 03:31:29;;;;;;;;;;;36.60;40.00;;;;;;5107167;28;19908;-69
2022/10/28 03:33:56;;;;;;;;;;;36.60;40.20;;;;;;5106783;28;19907;-69
2022/10/28 03:36:22;;;;;;;;;;;36.40;40.30;;;;;;5106886;28;20358;-69
2022/10/28 03:38:49;;;;;;;;;;;35.90;40.10;;;;;;5106699;28;19908;-67
2022/10/28 03:41:15;;;;;;;;;;;34.20;40.80;;;;;;5106337;28;19912;-69
2022/10/28 03:43:42;;;;;;;;;;;33.70;42.00;;;;;;5107284;28;20622;-68
2022/10/28 03:46:09;;;;;;;;;;;34.40;42.10;;;;;;5090169;28;19916;-69
2022/10/28 03:48:35;;;;;;;;;;;35.70;41.90;;;;;;5103198;28;20394;-70
2022/10/28 03:51:02;;;;;;;;;;;36.00;40.30;;;;;;5087689;28;20279;-69
2022/10/28 03:53:28;;;;;;;;;;;36.20;42.20;;;;;;5106579;28;19908;-70
2022/10/28 03:55:56;;;;;;;;;;;36.80;40.10;;;;;;5088204;28;19940;-70
2022/10/28 03:58:23;;;;;;;;;;;36.30;40.20;;;;;;5099632;28;19907;-68
2022/10/28 04:00:50;;;;;;;;;;;34.60;40.90;;;;;;5086888;28;20357;-68
2022/10/28 04:03:18;;;;;;;;;;;33.00;42.50;;;;;;5096771;28;19922;-68
2022/10/28 04:05:47;;;;;;;;;;;32.30;43.50;;;;;;5106025;28;20012;-69
2022/10/28 04:08:14;;;;;;;;;;;32.70;42.60;;;;;;5091662;28;19912;-70
2022/10/28 04:10:40;;;;;;;;;;;32.30;43.50;;;;;;5086139;28;19915;-68
2022/10/28 04:13:08;;;;;;;;;;;31.70;43.30;;;;;;5067495;28;19962;-69
2022/10/28 04:15:35;;;;;;;;;;;31.10;44.60;;;;;;5099020;28;19912;-69
2022/10/28 04:18:02;;;;;;;;;;;32.20;45.30;;;;;;5104570;28;19915;-69
2022/10/28 04:20:29;;;;;;;;;;;33.60;42.20;;;;;;5105418;28;19908;-69
2022/10/28 04:22:56;;;;;;;;;;;34.80;42.20;;;;;;5102540;28;19920;-67
2022/10/28 04:25:23;;;;;;;;;;;34.90;40.40;;;;;;5103319;28;20015;-68
2022/10/28 04:27:50;;;;;;;;;;;35.20;41.40;;;;;;5093746;28;20299;-68
2022/10/28 04:30:17;;;;;;;;;;;35.80;40.50;;;;;;5084742;28;19908;-69
2022/10/28 04:32:44;;;;;;;;;;;36.60;39.40;;;;;;5085577;28;20314;-68
2022/10/28 04:35:11;;;;;;;;;;;36.40;39.80;;;;;;5084424;28;19908;-69
2022/10/28 04:37:38;;;;;;;;;;;36.00;39.40;;;;;;5073409;28;19947;-69
2022/10/28 04:40:05;;;;;;;;;;;35.70;40.00;;;;;;5100413;28;19907;-68
2022/10/28 04:42:31;;;;;;;;;;;35.40;40.00;;;;;;5104464;28;19908;-69
2022/10/28 04:44:58;;;;;;;;;;;35.40;40.20;;;;;;5104534;28;19907;-69
2022/10/28 04:47:25;;;;;;;;;;;36.20;39.40;;;;;;5103452;28;19908;-69
2022/10/28 04:49:51;;;;;;;;;;;35.80;39.10;;;;;;5104239;28;20004;-70
2022/10/28 04:52:18;;;;;;;;;;;35.20;40.00;;;;;;5105150;28;19908;-68
2022/10/28 04:54:44;;;;;;;;;;;35.40;40.20;;;;;;5105767;28;20281;-68
2022/10/28 04:57:11;;;;;;;;;;;36.00;39.90;;;;;;5082591;28;19915;-69
2022/10/28 04:59:38;;;;;;;;;;;35.00;39.90;;;;;;5098474;28;19918;-70
2022/10/28 05:02:04;;;;;;;;;;;34.70;39.90;;;;;;5100213;28;19919;-69
2022/10/28 05:04:31;;;;;;;;;;;34.30;40.30;;;;;;5104434;28;20751;-69
2022/10/28 05:06:57;;;;;;;;;;;33.80;40.80;;;;;;5102954;28;19920;-69
2022/10/28 05:09:24;;;;;;;;;;;34.30;41.00;;;;;;5103303;28;20275;-70
2022/10/28 05:11:51;;;;;;;;;;;34.90;40.10;;;;;;5104665;28;19958;-69
2022/10/28 05:14:17;;;;;;;;;;;34.30;40.20;;;;;;5102858;28;19952;-69
2022/10/28 05:16:44;;;;;;;;;;;34.10;40.30;;;;;;5098258;28;19935;-70
2022/10/28 05:19:11;;;;;;;;;;;33.50;40.70;;;;;;5104233;28;19907;-69
2022/10/28 05:21:37;;;;;;;;;;;33.80;42.20;;;;;;5094527;28;19912;-69
2022/10/28 05:24:04;;;;;;;;;;;34.00;41.20;;;;;;5083967;28;20011;-69
2022/10/28 05:26:31;;;;;;;;;;;34.50;42.20;;;;;;5094549;28;19920;-69
2022/10/28 05:28:57;;;;;;;;;;;35.30;40.50;;;;;;5102445;28;19912;-70
2022/10/28 05:31:24;;;;;;;;;;;34.70;40.90;;;;;;5087749;28;19957;-69
2022/10/28 05:33:51;;;;;;;;;;;35.00;40.00;;;;;;5097059;28;20240;-67
2022/10/28 05:36:17;;;;;;;;;;;34.40;41.40;;;;;;5102081;28;19950;-68
2022/10/28 05:38:44;;;;;;;;;;;34.70;40.40;;;;;;5104495;28;20295;-68
2022/10/28 05:41:11;;;;;;;;;;;34.60;39.40;;;;;;5091002;28;19919;-68
2022/10/28 05:43:37;;;;;;;;;;;34.20;40.90;;;;;;5095227;28;19912;-68
2022/10/28 05:46:04;;;;;;;;;;;34.10;40.40;;;;;;5100616;28;20409;-69
2022/10/28 05:48:31;;;;;;;;;;;33.70;40.80;;;;;;5093039;28;20274;-70
2022/10/28 05:50:57;;;;;;;;;;;33.80;41.20;;;;;;5095913;28;20380;-69
2022/10/28 05:53:24;;;;;;;;;;;34.80;40.60;;;;;;5102428;27;19911;-69
2022/10/28 05:55:51;;;;;;;;;;;35.60;40.80;;;;;;5100053;28;19912;-68
2022/10/28 05:58:17;;;;;;;;;;;36.00;39.70;;;;;;5103740;28;20252;-71
2022/10/28 06:00:44;;;;;;;;;;;36.10;39.30;;;;;;5103483;28;19915;-68
2022/10/28 06:03:11;;;;;;;;;;;35.60;39.20;;;;;;5102187;28;19947;-70
2022/10/28 06:05:39;;;;;;;;;;;34.90;40.40;;;;;;5101754;28;19919;-69
2022/10/28 06:08:06;;;;;;;;;;;35.20;39.70;;;;;;5100904;28;19915;-69
2022/10/28 06:10:33;;;;;;;;;;;35.60;39.20;;;;;;5083636;28;20331;-70
2022/10/28 06:13:00;;;;;;;;;;;34.60;39.00;;;;;;5095459;28;19920;-69
2022/10/28 06:15:26;;;;;;;;;;;33.90;39.70;;;;;;5101173;28;20347;-68
2022/10/28 06:17:53;;;;;;;;;;;33.70;39.80;;;;;;5098246;28;19912;-69
2022/10/28 06:20:20;;;;;;;;;;;32.90;40.60;;;;;;5102958;28;20022;-69
2022/10/28 06:22:47;;;;;;;;;;;32.80;40.40;;;;;;5101845;28;19911;-67
2022/10/28 06:25:14;;;;;;;;;;;32.50;40.00;;;;;;5081736;28;19908;-69
2022/10/28 06:27:41;;;;;;;;;;;32.00;40.90;;;;;;5081696;28;19920;-68
2022/10/28 06:30:08;;;;;;;;;;;32.10;41.60;;;;;;5093030;28;20026;-70
2022/10/28 06:32:34;;;;;;;;;;;32.40;41.70;;;;;;5100307;28;19912;-70
2022/10/28 06:35:01;;;;;;;;;;;32.50;41.60;;;;;;5084155;28;19913;-70
2022/10/28 06:37:28;;;;;;;;;;;32.60;41.60;;;;;;5090246;28;19923;-70
2022/10/28 06:39:55;;;;;;;;;;;32.20;41.00;;;;;;5100830;28;19981;-70
2022/10/28 06:42:21;;;;;;;;;;;31.50;42.00;;;;;;5102112;28;20109;-65
2022/10/28 06:44:49;;;;;;;;;;;30.30;42.10;;;;;;5101208;28;19907;-69
2022/10/28 06:47:16;;;;;;;;;;;29.70;43.60;;;;;;5095171;28;19916;-68
2022/10/28 06:49:42;;;;;;;;;;;29.20;44.00;;;;;;5100029;28;19912;-69
2022/10/28 06:52:09;;;;;;;;;;;28.30;44.60;;;;;;5096756;28;19916;-69
2022/10/28 06:54:36;;;;;;;;;;;27.50;46.20;;;;;;5093795;28;19915;-69
2022/10/28 06:57:02;;;;;;;;;;;27.30;46.30;;;;;;5100991;28;19962;-68
2022/10/28 06:59:29;;;;;;;;;;;27.20;46.00;;;;;;5099940;28;19951;-69
2022/10/28 07:01:55;;;;;;;;;;;27.20;45.80;;;;;;5102165;28;19960;-68
2022/10/28 07:04:22;;;;;;;;;;;27.00;45.90;;;;;;5102457;28;20018;-68
2022/10/28 07:06:55;;;;;;;;;;;26.40;46.70;;;;;;5089386;28;20459;-69
2022/10/28 07:09:21;;;;;;;;;;;26.40;47.60;;;;;;5097949;28;19954;-68
2022/10/28 07:11:48;;;;;;;;;;;26.30;46.80;;;;;;5085359;28;19912;-68
2022/10/28 07:14:15;;;;;;;;;;;26.20;47.10;;;;;;5100227;28;19947;-67
2022/10/28 07:16:41;;;;;;;;;;;26.10;47.20;;;;;;5102724;28;20687;-68
2022/10/28 07:19:08;;;;;;;;;;;26.10;47.50;;;;;;5101583;28;20375;-68
2022/10/28 07:21:35;;;;;;;;;;;25.80;47.80;;;;;;5102983;28;19916;-68
2022/10/28 07:24:02;;;;;;;;;;;25.50;47.90;;;;;;5084011;28;20275;-69
2022/10/28 07:26:28;;;;;;;;;;;25.40;48.10;;;;;;5101853;28;20006;-70
2022/10/28 07:28:55;;;;;;;;;;;25.20;47.80;;;;;;5100472;28;19956;-68
2022/10/28 07:31:22;;;;;;;;;;;24.90;48.50;;;;;;5081715;28;19912;-70
2022/10/28 07:33:52;;;;;;;;;;;24.60;48.70;;;;;;5099573;28;19908;-68
2022/10/28 07:36:19;;;;;;;;;;;24.50;49.30;;;;;;5103649;28;19914;-68
2022/10/28 07:38:47;;;;;;;;;;;24.30;49.50;;;;;;5106228;28;19912;-68
2022/10/28 07:41:14;;;;;;;;;;;24.20;49.60;;;;;;5087410;28;20720;-69
2022/10/28 07:43:41;;;;;;;;;;;24.20;50.40;;;;;;5102588;28;19973;-69
2022/10/28 07:46:07;;;;;;;;;;;24.10;49.80;;;;;;5104895;28;19915;-67
2022/10/28 07:48:37;;;;;;;;;;;24.00;50.00;;;;;;5086203;28;19912;-68
2022/10/28 07:51:05;;;;;;;;;;;23.90;50.40;;;;;;5101255;28;20023;-68
2022/10/28 07:53:32;;;;;;;;;;;23.70;50.90;;;;;;5106940;28;20280;-68
2022/10/28 07:56:01;;;;;;;;;;;23.70;50.50;;;;;;5105455;28;19914;-68
2022/10/28 07:58:27;;;;;;;;;;;23.60;51.30;;;;;;5103804;28;20330;-67
2022/10/28 08:00:54;;;;;;;;;;;23.50;50.90;;;;;;5105203;28;20356;-68
2022/10/28 08:03:21;;;;;;;;;;;23.40;51.00;;;;;;5106633;28;19927;-68
2022/10/28 08:05:47;;;;;;;;;;;23.30;51.10;;;;;;5106501;28;19959;-67
2022/10/28 08:08:14;;;;;;;;;;;23.20;51.10;;;;;;5105630;28;19999;-67
2022/10/28 08:10:41;;;;;;;;;;;23.20;51.30;;;;;;5098257;28;19911;-68
2022/10/28 08:13:07;;;;;;;;;;;23.10;51.40;;;;;;5105250;28;19915;-68
2022/10/28 08:15:34;;;;;;;;;;;23.00;51.40;;;;;;5106238;28;19961;-68
2022/10/28 08:18:01;;;;;;;;;;;23.00;52.10;;;;;;5104698;28;19915;-68
2022/10/28 08:20:27;;;;;;;;;;;22.90;52.10;;;;;;5091736;28;19999;-69
2022/10/28 08:22:54;;;;;;;;;;;22.90;53.10;;;;;;5086955;28;19919;-68
2022/10/28 08:25:20;;;;;;;;;;;22.80;52.90;;;;;;5085148;28;19923;-67
2022/10/28 08:27:47;;;;;;;;;;;22.70;52.30;;;;;;5103896;28;19951;-68
2022/10/28 08:30:14;;;;;;;;;;;22.50;53.60;;;;;;5096017;28;20010;-68
2022/10/28 08:32:41;;;;;;;;;;;22.40;52.40;;;;;;5088475;28;19915;-68
2022/10/28 08:35:07;;;;;;;;;;;22.30;52.50;;;;;;5102882;28;19918;-66
2022/10/28 08:37:34;;;;;;;;;;;22.20;52.70;;;;;;5104816;28;19912;-67
2022/10/28 08:40:01;;;;;;;;;;;22.20;52.80;;;;;;5104975;28;19908;-68
2022/10/28 08:42:43;;;;;;;;;;;22.10;52.80;;;;;;5104864;28;19911;-69
2022/10/28 08:45:17;;;;;;;;;;;22.10;53.00;;;;;;5098300;28;19930;-67
2022/10/28 08:48:05;;;;;;;;;;;22.00;53.40;;;;;;5101457;28;20004;-67
2022/10/28 08:50:32;;;;;;;;;;;21.80;53.50;;;;;;5105644;28;20367;-67
2022/10/28 08:53:05;;;;;;;;;;;21.80;53.50;;;;;;5097053;28;19911;-67
2022/10/28 08:55:34;;;;;;;;;;;21.70;53.90;;;;;;5099386;28;19919;-67
2022/10/28 08:58:07;;;;;;;;;;;21.70;53.70;;;;;;5090975;28;19919;-68
2022/10/28 09:00:34;;;;;;;;;;;21.60;54.20;;;;;;5103953;28;19926;-68
2022/10/28 09:03:01;;;;;;;;;;;21.50;54.30;;;;;;5098687;28;19926;-67
2022/10/28 09:05:27;;;;;;;;;;;21.50;53.80;;;;;;5093660;28;19911;-67
2022/10/28 09:07:55;;;;;;;;;;;21.40;54.50;;;;;;5105158;28;19908;-66
2022/10/28 09:10:45;;;;;;;;;;;21.40;54.40;;;;;;5104331;28;19907;-66
2022/10/28 09:13:21;;;;;;;;;;;21.30;54.30;;;;;;5067381;28;20431;-66
2022/10/28 09:15:53;;;;;;;;;;;21.30;54.60;;;;;;5094337;28;20287;-68
2022/10/28 09:18:25;;;;;;;;;;;21.30;54.60;;;;;;5082493;28;19951;-69
2022/10/28 09:20:56;;;;;;;;;;;21.30;55.00;;;;;;5101600;28;20366;-66
2022/10/28 09:23:26;;;;;;;;;;;21.30;55.20;;;;;;5104222;28;19912;-69
2022/10/28 09:26:11;;;;;;;;;;;21.30;55.30;;;;;;5091491;28;20406;-69
2022/10/28 09:28:40;;;;;;;;;;;21.30;55.30;;;;;;5085117;28;20830;-69
2022/10/28 09:31:07;;;;;;;;;;;21.20;55.40;;;;;;5084502;28;20304;-69
2022/10/28 09:34:02;;;;;;;;;;;21.20;55.60;;;;;;5100401;28;19950;-69
2022/10/28 09:36:43;;;;;;;;;;;21.10;55.60;;;;;;5074576;28;19919;-68
2022/10/28 09:39:21;;;;;;;;;;;21.00;55.90;;;;;;5084131;28;19919;-69
2022/10/28 09:41:48;;;;;;;;;;;21.10;56.60;;;;;;5088244;28;19912;-68
2022/10/28 09:44:19;;;;;;;;;;;21.00;55.80;;;;;;5085377;28;19920;-68
2022/10/28 09:46:47;;;;;;;;;;;21.00;56.30;;;;;;5093547;28;20435;-68
2022/10/28 09:49:20;;;;;;;;;;;21.00;56.40;;;;;;5103884;28;20382;-68
2022/10/28 09:51:57;;;;;;;;;;;21.00;56.40;;;;;;5104589;28;19908;-69
2022/10/28 09:54:31;;;;;;;;;;;20.90;56.60;;;;;;5084035;28;19920;-69
2022/10/28 09:56:58;;;;;;;;;;;20.90;56.40;;;;;;5088271;28;19999;-69
2022/10/28 09:59:24;;;;;;;;;;;20.90;56.90;;;;;;5102965;28;19908;-69
2022/10/28 10:01:51;;;;;;;;;;;20.80;56.80;;;;;;5104182;28;19995;-69
2022/10/28 10:04:22;;;;;;;;;;;20.80;57.30;;;;;;5085610;28;19920;-69
2022/10/28 10:06:52;;;;;;;;;;;20.70;57.50;;;;;;5082235;28;19959;-69
2022/10/28 10:09:22;;;;;;;;;;;20.70;57.80;;;;;;5083569;28;19908;-69
2022/10/28 10:11:49;;;;;;;;;;;20.60;57.70;;;;;;5084499;28;19919;-69
2022/10/28 10:14:18;;;;;;;;;;;20.50;57.50;;;;;;5097628;28;19912;-69
2022/10/28 10:16:54;;;;;;;;;;;20.50;57.90;;;;;;5101358;28;19912;-69
2022/10/28 10:19:21;;;;;;;;;;;20.50;58.00;;;;;;5099310;28;19941;-69
2022/10/28 10:21:51;;;;;;;;;;;20.50;58.40;;;;;;5098928;28;20598;-69
2022/10/28 10:24:27;;;;;;;;;;;20.40;58.60;;;;;;5099405;28;19918;-68
2022/10/28 10:26:54;;;;;;;;;;;20.40;58.80;;;;;;5097618;28;20360;-69
2022/10/28 10:29:21;;;;;;;;;;;20.30;59.20;;;;;;5100844;28;19951;-69
2022/10/28 10:32:02;;;;;;;;;;;20.30;59.10;;;;;;5100093;28;19912;-69
2022/10/28 10:34:29;;;;;;;;;;;20.30;59.70;;;;;;5101014;28;19908;-69
2022/10/28 10:36:56;;;;;;;;;;;20.20;59.60;;;;;;5100645;28;19972;-68
2022/10/28 10:39:26;;;;;;;;;;;20.20;59.90;;;;;;5102204;28;19918;-69
2022/10/28 10:41:55;;;;;;;;;;;20.20;59.70;;;;;;5096445;28;19942;-69
2022/10/28 10:44:22;;;;;;;;;;;20.10;59.40;;;;;;5101783;28;20011;-70
2022/10/28 10:47:08;;;;;;;;;;;20.20;59.40;;;;;;5100469;28;19926;-69
2022/10/28 10:49:35;;;;;;;;;;;20.20;59.20;;;;;;5085258;28;19960;-68
2022/10/28 10:52:04;;;;;;;;;;;20.20;59.30;;;;;;5099744;28;19916;-69
2022/10/28 10:54:31;;;;;;;;;;;20.10;59.40;;;;;;5101434;28;19912;-68
2022/10/28 10:57:18;;;;;;;;;;;20.10;59.70;;;;;;5098267;28;19908;-68
2022/10/28 10:59:49;;;;;;;;;;;20.10;59.10;;;;;;5101430;28;19916;-68
2022/10/28 11:02:25;;;;;;;;;;;20.00;59.90;;;;;;5093193;28;19919;-68
2022/10/28 11:04:54;;;;;;;;;;;20.10;59.50;;;;;;5095906;28;19923;-70
2022/10/28 11:07:21;;;;;;;;;;;20.00;59.20;;;;;;5095557;28;20014;-68
2022/10/28 11:09:49;;;;;;;;;;;20.10;59.40;;;;;;5099826;28;20314;-67
2022/10/28 11:12:18;;;;;;;;;;;20.10;59.30;;;;;;5091454;28;19916;-66
2022/10/28 11:14:59;;;;;;;;;;;20.10;59.50;;;;;;5104811;28;19908;-68
2022/10/28 11:17:27;;;;;;;;;;;20.00;59.20;;;;;;5105024;28;19908;-69
2022/10/28 11:19:55;;;;;;;;;;;20.00;59.50;;;;;;5099470;28;19912;-69
2022/10/28 11:22:39;;;;;;;;;;;20.00;59.30;;;;;;5092840;28;20024;-68
2022/10/28 11:25:23;;;;;;;;;;;20.00;59.40;;;;;;5102120;28;20368;-68
2022/10/28 11:27:50;;;;;;;;;;;20.00;59.50;;;;;;5092642;28;19920;-68
2022/10/28 11:30:18;;;;;;;;;;;20.00;59.80;;;;;;5104052;28;20015;-68
2022/10/28 11:33:06;;;;;;;;;;;20.00;59.70;;;;;;5089311;28;19919;-68
2022/10/28 11:35:42;;;;;;;;;;;20.00;60.00;;;;;;5086029;28;19908;-67
2022/10/28 11:38:26;;;;;;;;;;;19.90;59.60;;;;;;5085709;28;20319;-68
2022/10/28 11:41:16;;;;;;;;;;;19.90;60.20;;;;;;5100730;28;19923;-68
2022/10/28 11:43:43;;;;;;;;;;;19.80;60.20;;;;;;5086591;28;19912;-68
2022/10/28 11:46:17;;;;;;;;;;;19.80;60.50;;;;;;5085658;28;19916;-68
2022/10/28 11:48:49;;;;;;;;;;;19.80;60.40;;;;;;5086911;28;19908;-68
2022/10/28 11:51:28;;;;;;;;;;;19.70;60.50;;;;;;5087616;28;19920;-68
2022/10/28 11:54:13;;;;;;;;;;;19.70;60.60;;;;;;5105778;28;19912;-69
2022/10/28 11:56:46;;;;;;;;;;;19.60;61.10;;;;;;5104189;28;19908;-68
2022/10/28 11:59:30;;;;;;;;;;;19.60;61.30;;;;;;5102169;28;20364;-70
2022/10/28 12:02:00;;;;;;;;;;;19.60;61.20;;;;;;5098645;28;19955;-69
2022/10/28 12:04:47;;;;;;;;;;;19.50;61.50;;;;;;5103939;28;19931;-68
2022/10/28 12:07:23;;;;;;;;;;;19.50;61.90;;;;;;5105481;28;19940;-69
2022/10/28 12:09:49;;;;;;;;;;;19.40;62.00;;;;;;5106744;28;20413;-68
2022/10/28 12:12:28;;;;;;;;;;;19.40;61.80;;;;;;5100279;28;20303;-69
2022/10/28 12:15:10;;;;;;;;;;;19.40;61.90;;;;;;5098051;28;19997;-68
2022/10/28 12:18:06;;;;;;;;;;;19.40;62.30;;;;;;5106009;28;19912;-69
2022/10/28 12:20:35;;;;;;;;;;;19.40;62.40;;;;;;5050537;28;19923;-69
2022/10/28 12:23:04;;;;;;;;;;;19.30;62.40;;;;;;5104290;28;19908;-69
2022/10/28 12:25:33;;;;;;;;;;;19.30;62.70;;;;;;5104796;28;19915;-70
2022/10/28 12:28:02;;;;;;;;;;;19.30;63.10;;;;;;5106228;28;19908;-70
2022/10/28 12:30:32;;;;;;;;;;;19.20;62.70;;;;;;5104598;28;20378;-69
2022/10/28 12:33:22;;;;;;;;;;;19.20;62.90;;;;;;5087551;28;19908;-68
2022/10/28 12:35:56;;;;;;;;;;;19.10;63.70;;;;;;5097726;28;20384;-69
2022/10/28 12:38:26;;;;;;;;;;;19.10;63.40;;;;;;5104524;28;19938;-71
2022/10/28 12:40:57;;;;;;;;;;;19.10;63.50;;;;;;5105739;28;19912;-70
2022/10/28 12:43:45;;;;;;;;;;;19.10;63.70;;;;;;5102168;28;19912;-69
2022/10/28 12:46:27;;;;;;;;;;;19.00;64.00;;;;;;5103540;28;20384;-69
2022/10/28 12:49:15;;;;;;;;;;;19.00;64.30;;;;;;5103371;28;19998;-70
2022/10/28 12:51:42;;;;;;;;;;;19.00;65.00;;;;;;5101370;28;20269;-70
2022/10/28 12:54:17;;;;;;;;;;;18.90;65.30;;;;;;5102633;28;19915;-70
2022/10/28 12:56:54;;;;;;;;;;;18.90;65.20;;;;;;5104019;28;19912;-69
2022/10/28 12:59:40;;;;;;;;;;;18.80;65.60;;;;;;5102645;28;20315;-68
2022/10/28 13:02:13;;;;;;;;;;;18.80;65.50;;;;;;5085279;28;19912;-68
2022/10/28 13:04:40;;;;;;;;;;;18.90;65.40;;;;;;5102931;28;20695;-69
2022/10/28 13:07:19;;;;;;;;;;;18.90;65.90;;;;;;5105101;28;20375;-69
2022/10/28 13:10:02;;;;;;;;;;;19.00;66.40;;;;;;5103207;28;19954;-70
2022/10/28 13:12:35;;;;;;;;;;;19.00;65.60;;;;;;5083512;28;20288;-70
2022/10/28 13:15:20;;;;;;;;;;;19.10;65.40;;;;;;5084265;28;19916;-69
2022/10/28 13:17:46;;;;;;;;;;;19.00;65.50;;;;;;5084438;28;19908;-70
2022/10/28 13:20:22;;;;;;;;;;;19.00;65.50;;;;;;5084491;28;20376;-69
2022/10/28 13:23:08;;;;;;;;;;;19.00;65.10;;;;;;5084294;28;19934;-70
2022/10/28 13:25:58;;;;;;;;;;;19.00;64.70;;;;;;5064299;28;19912;-69
2022/10/28 13:28:28;;;;;;;;;;;19.10;65.30;;;;;;5075432;28;19912;-69
2022/10/28 13:30:55;;;;;;;;;;;19.10;65.30;;;;;;5084575;28;20291;-69
2022/10/28 13:33:24;;;;;;;;;;;19.10;65.10;;;;;;5083461;28;20422;-70
2022/10/28 13:35:51;;;;;;;;;;;19.10;64.40;;;;;;5083958;28;19912;-71
2022/10/28 13:38:20;;;;;;;;;;;19.10;64.60;;;;;;5085279;28;19993;-71
2022/10/28 13:40:47;;;;;;;;;;;19.10;64.40;;;;;;5083701;28;19944;-69
2022/10/28 13:43:39;;;;;;;;;;;19.20;64.10;;;;;;5084356;28;19913;-69
2022/10/28 13:46:06;;;;;;;;;;;19.20;64.30;;;;;;5084031;28;19916;-70
2022/10/28 13:48:42;;;;;;;;;;;19.10;64.20;;;;;;5082835;28;20341;-69
2022/10/28 13:51:08;;;;;;;;;;;19.20;64.40;;;;;;5092703;28;19911;-69
2022/10/28 13:53:38;;;;;;;;;;;19.20;64.40;;;;;;5103238;28;19949;-70
2022/10/28 13:56:16;;;;;;;;;;;19.20;64.60;;;;;;5104269;28;19907;-70
2022/10/28 13:58:53;;;;;;;;;;;19.10;64.60;;;;;;5102906;28;20003;-69
2022/10/28 14:01:37;;;;;;;;;;;19.20;65.10;;;;;;5104020;28;19990;-70
2022/10/28 14:04:05;;;;;;;;;;;19.10;65.00;;;;;;5103775;28;19923;-70
2022/10/28 14:06:32;;;;;;;;;;;19.10;65.00;;;;;;5103493;28;19916;-69
2022/10/28 14:08:59;;;;;;;;;;;19.10;65.40;;;;;;5093140;28;20376;-69
2022/10/28 14:11:31;;;;;;;;;;;19.10;65.30;;;;;;5082539;28;19965;-70
2022/10/28 14:14:00;;;;;;;;;;;19.10;65.70;;;;;;5083317;28;19912;-69
2022/10/28 14:16:30;;;;;;;;;;;19.10;65.40;;;;;;5082694;28;19948;-70
2022/10/28 14:18:59;;;;;;;;;;;19.10;65.40;;;;;;5092584;28;19980;-69
2022/10/28 14:21:38;;;;;;;;;;;19.10;65.80;;;;;;5102915;28;19908;-70
2022/10/28 14:24:09;;;;;;;;;;;19.20;65.80;;;;;;5104241;28;19912;-69
2022/10/28 14:26:54;;;;;;;;;;;19.20;65.40;;;;;;5102774;28;19969;-70
2022/10/28 14:29:28;;;;;;;;;;;19.20;65.30;;;;;;5103076;28;19915;-69
2022/10/28 14:31:54;;;;;;;;;;;19.20;65.60;;;;;;5103281;28;19908;-70
2022/10/28 14:34:21;;;;;;;;;;;19.10;65.60;;;;;;5103829;28;19915;-68